PWSweather.com
Personal Weather Stations
Station Observations
MART18
Seleziona Stato..., MartinsicuroIT italia

Seleziona Stato...MartinsicuroIT italia

Lat: 42.885169, Lon: 13.918447300000025

Elevation: 3

Station Type: Davis vantage vp2

branciuno67@gmail.com

High Low Average
Temperature 87.4°F30.8°C 77.9°F25.5°C 82.8°F28.2°C
Dew Point 76.1°F24.5°C 62.4°F16.9°C 69.0°F20.6°C
Winds 8.1 mph 13.0 kmh Calm Calm 4.0 mph S6.4 kmh S
Wind Gusts 13.0 mph20.9 kmh -- 8.0 mph12.9 kmh
Humidity 75% 51% 63%
Pressure 29.91 in1012.9 mb 29.87 in1011.5 mb -
Precipitation 0.00 in0.0 mm - -
Hour Temp Dew Point Humidity Winds Wind Gusts Pressure Precip Precip Rate Daily Precip Total
12:04 AM 79.9°F26.6°C 69.3°F20.7°C 70% 4.0 mph NW6.4 kmh NW 8.9 mph14.3 kmh 29.89 in1012.2 mb 0.00 in0.0 mm 0.00 in0.0 mm 0.00 in0.0 mm
12:09 AM 80.1°F26.7°C 68.9°F20.5°C 69% 4.0 mph NW6.4 kmh NW 8.1 mph13.0 kmh 29.89 in1012.2 mb 0.00 in0.0 mm 0.00 in0.0 mm 0.00 in0.0 mm
12:14 AM 80.4°F26.9°C 68.5°F20.3°C 67% 4.0 mph W6.4 kmh W 11.0 mph17.7 kmh 29.89 in1012.2 mb 0.00 in0.0 mm 0.00 in0.0 mm 0.00 in0.0 mm
12:19 AM 80.6°F27.0°C 68.2°F20.1°C 66% 4.9 mph NW7.9 kmh NW 11.0 mph17.7 kmh 29.89 in1012.2 mb 0.00 in0.0 mm 0.00 in0.0 mm 0.00 in0.0 mm
12:24 AM 80.8°F27.1°C 68.4°F20.2°C 66% 4.9 mph NW7.9 kmh NW 10.1 mph16.3 kmh 29.89 in1012.2 mb 0.00 in0.0 mm 0.00 in0.0 mm 0.00 in0.0 mm
12:29 AM 80.8°F27.1°C 68.0°F20.0°C 65% 4.9 mph WNW7.9 kmh WNW 10.1 mph16.3 kmh 29.89 in1012.2 mb 0.00 in0.0 mm 0.00 in0.0 mm 0.00 in0.0 mm
12:39 AM 80.4°F26.9°C 68.0°F20.0°C 66% 4.0 mph W6.4 kmh W 8.1 mph13.0 kmh 29.89 in1012.2 mb 0.00 in0.0 mm 0.00 in0.0 mm 0.00 in0.0 mm
12:44 AM 80.2°F26.8°C 68.4°F20.2°C 67% 4.9 mph WNW7.9 kmh WNW 8.9 mph14.3 kmh 29.89 in1012.2 mb 0.00 in0.0 mm 0.00 in0.0 mm 0.00 in0.0 mm
12:49 AM 80.1°F26.7°C 68.2°F20.1°C 67% 4.9 mph NW7.9 kmh NW 11.0 mph17.7 kmh 29.89 in1012.2 mb 0.00 in0.0 mm 0.00 in0.0 mm 0.00 in0.0 mm
12:54 AM 80.1°F26.7°C 67.6°F19.8°C 66% 4.9 mph WNW7.9 kmh WNW 12.1 mph19.5 kmh 29.89 in1012.2 mb 0.00 in0.0 mm 0.00 in0.0 mm 0.00 in0.0 mm
12:59 AM 80.2°F26.8°C 67.8°F19.9°C 66% 6.0 mph WNW9.7 kmh WNW 10.1 mph16.3 kmh 29.89 in1012.2 mb 0.00 in0.0 mm 0.00 in0.0 mm 0.00 in0.0 mm
01:04 AM 80.4°F26.9°C 67.6°F19.8°C 65% 4.9 mph WNW7.9 kmh WNW 8.9 mph14.3 kmh 29.89 in1012.2 mb 0.00 in0.0 mm 0.00 in0.0 mm 0.00 in0.0 mm
01:09 AM 80.6°F27.0°C 67.3°F19.6°C 64% 4.9 mph W7.9 kmh W 11.0 mph17.7 kmh 29.89 in1012.2 mb 0.00 in0.0 mm 0.00 in0.0 mm 0.00 in0.0 mm
01:14 AM 80.8°F27.1°C 66.9°F19.4°C 63% 4.9 mph WNW7.9 kmh WNW 11.0 mph17.7 kmh 29.88 in1011.9 mb 0.00 in0.0 mm 0.00 in0.0 mm 0.00 in0.0 mm
01:19 AM 81.0°F27.2°C 67.1°F19.5°C 63% 6.0 mph W9.7 kmh W 10.1 mph16.3 kmh 29.88 in1011.9 mb 0.00 in0.0 mm 0.00 in0.0 mm 0.00 in0.0 mm
01:24 AM 81.1°F27.3°C 67.3°F19.6°C 63% 6.0 mph WNW9.7 kmh WNW 10.1 mph16.3 kmh 29.88 in1011.9 mb 0.00 in0.0 mm 0.00 in0.0 mm 0.00 in0.0 mm
01:29 AM 81.3°F27.4°C 67.1°F19.5°C 62% 6.0 mph W9.7 kmh W 11.0 mph17.7 kmh 29.88 in1011.9 mb 0.00 in0.0 mm 0.00 in0.0 mm 0.00 in0.0 mm
01:34 AM 81.5°F27.5°C 66.7°F19.3°C 61% 4.9 mph NW7.9 kmh NW 11.0 mph17.7 kmh 29.88 in1011.9 mb 0.00 in0.0 mm 0.00 in0.0 mm 0.00 in0.0 mm
01:39 AM 81.7°F27.6°C 66.9°F19.4°C 61% 6.0 mph W9.7 kmh W 13.0 mph20.9 kmh 29.88 in1011.9 mb 0.00 in0.0 mm 0.00 in0.0 mm 0.00 in0.0 mm
01:44 AM 81.7°F27.6°C 66.9°F19.4°C 61% 6.0 mph WSW9.7 kmh WSW 10.1 mph16.3 kmh 29.88 in1011.9 mb 0.00 in0.0 mm 0.00 in0.0 mm 0.00 in0.0 mm
01:49 AM 81.3°F27.4°C 66.6°F19.2°C 61% 4.9 mph WNW7.9 kmh WNW 11.0 mph17.7 kmh 29.88 in1011.9 mb 0.00 in0.0 mm 0.00 in0.0 mm 0.00 in0.0 mm
01:54 AM 81.3°F27.4°C 66.6°F19.2°C 61% 4.9 mph NW7.9 kmh NW 8.9 mph14.3 kmh 29.88 in1011.9 mb 0.00 in0.0 mm 0.00 in0.0 mm 0.00 in0.0 mm
01:59 AM 81.1°F27.3°C 66.4°F19.1°C 61% 4.9 mph WNW7.9 kmh WNW 11.0 mph17.7 kmh 29.88 in1011.9 mb 0.00 in0.0 mm 0.00 in0.0 mm 0.00 in0.0 mm
02:04 AM 81.0°F27.2°C 66.2°F19.0°C 61% 6.0 mph NW9.7 kmh NW 12.1 mph19.5 kmh 29.88 in1011.9 mb 0.00 in0.0 mm 0.00 in0.0 mm 0.00 in0.0 mm
02:09 AM 80.8°F27.1°C 66.6°F19.2°C 62% 6.0 mph WNW9.7 kmh WNW 8.9 mph14.3 kmh 29.88 in1011.9 mb 0.00 in0.0 mm 0.00 in0.0 mm 0.00 in0.0 mm
02:14 AM 80.6°F27.0°C 66.4°F19.1°C 62% 4.9 mph W7.9 kmh W 8.9 mph14.3 kmh 29.88 in1011.9 mb 0.00 in0.0 mm 0.00 in0.0 mm 0.00 in0.0 mm
02:19 AM 80.2°F26.8°C 66.6°F19.2°C 63% 4.0 mph N6.4 kmh N 8.9 mph14.3 kmh 29.88 in1011.9 mb 0.00 in0.0 mm 0.00 in0.0 mm 0.00 in0.0 mm
02:24 AM 79.9°F26.6°C 66.6°F19.2°C 64% 4.9 mph NW7.9 kmh NW 10.1 mph16.3 kmh 29.88 in1011.9 mb 0.00 in0.0 mm 0.00 in0.0 mm 0.00 in0.0 mm
02:29 AM 79.3°F26.3°C 66.6°F19.2°C 65% 4.9 mph NNW7.9 kmh NNW 8.9 mph14.3 kmh 29.88 in1011.9 mb 0.00 in0.0 mm 0.00 in0.0 mm 0.00 in0.0 mm
02:34 AM 78.6°F25.9°C 66.4°F19.1°C 66% 4.0 mph W6.4 kmh W 8.1 mph13.0 kmh 29.88 in1011.9 mb 0.00 in0.0 mm 0.00 in0.0 mm 0.00 in0.0 mm
02:39 AM 78.8°F26.0°C 66.6°F19.2°C 66% 4.0 mph NW6.4 kmh NW 10.1 mph16.3 kmh 29.88 in1011.9 mb 0.00 in0.0 mm 0.00 in0.0 mm 0.00 in0.0 mm
02:44 AM 78.8°F26.0°C 66.0°F18.9°C 65% 4.9 mph W7.9 kmh W 12.1 mph19.5 kmh 29.87 in1011.5 mb 0.00 in0.0 mm 0.00 in0.0 mm 0.00 in0.0 mm
02:49 AM 79.0°F26.1°C 66.2°F19.0°C 65% 6.0 mph W9.7 kmh W 11.0 mph17.7 kmh 29.87 in1011.5 mb 0.00 in0.0 mm 0.00 in0.0 mm 0.00 in0.0 mm
02:54 AM 79.2°F26.2°C 65.8°F18.8°C 64% 4.0 mph NW6.4 kmh NW 6.9 mph11.1 kmh 29.87 in1011.5 mb 0.00 in0.0 mm 0.00 in0.0 mm 0.00 in0.0 mm
02:59 AM 79.2°F26.2°C 65.5°F18.6°C 63% 2.9 mph NW4.7 kmh NW 8.1 mph13.0 kmh 29.87 in1011.5 mb 0.00 in0.0 mm 0.00 in0.0 mm 0.00 in0.0 mm
03:04 AM 79.3°F26.3°C 65.7°F18.7°C 63% 4.0 mph NW6.4 kmh NW 8.1 mph13.0 kmh 29.88 in1011.9 mb 0.00 in0.0 mm 0.00 in0.0 mm 0.00 in0.0 mm
03:09 AM 79.3°F26.3°C 65.7°F18.7°C 63% 4.0 mph NW6.4 kmh NW 8.1 mph13.0 kmh 29.88 in1011.9 mb 0.00 in0.0 mm 0.00 in0.0 mm 0.00 in0.0 mm
03:14 AM 79.2°F26.2°C 65.5°F18.6°C 63% 2.9 mph WNW4.7 kmh WNW 6.9 mph11.1 kmh 29.88 in1011.9 mb 0.00 in0.0 mm 0.00 in0.0 mm 0.00 in0.0 mm
03:19 AM 79.2°F26.2°C 64.9°F18.3°C 62% 2.9 mph NW4.7 kmh NW 8.9 mph14.3 kmh 29.88 in1011.9 mb 0.00 in0.0 mm 0.00 in0.0 mm 0.00 in0.0 mm
03:24 AM 79.5°F26.4°C 65.3°F18.5°C 62% 4.0 mph WSW6.4 kmh WSW 8.9 mph14.3 kmh 29.88 in1011.9 mb 0.00 in0.0 mm 0.00 in0.0 mm 0.00 in0.0 mm
03:29 AM 79.5°F26.4°C 64.9°F18.3°C 61% 4.0 mph NW6.4 kmh NW 11.0 mph17.7 kmh 29.88 in1011.9 mb 0.00 in0.0 mm 0.00 in0.0 mm 0.00 in0.0 mm
03:34 AM 79.7°F26.5°C 64.6°F18.1°C 60% 4.0 mph W6.4 kmh W 6.9 mph11.1 kmh 29.88 in1011.9 mb 0.00 in0.0 mm 0.00 in0.0 mm 0.00 in0.0 mm
03:39 AM 79.9°F26.6°C 64.8°F18.2°C 60% 2.9 mph WSW4.7 kmh WSW 6.9 mph11.1 kmh 29.88 in1011.9 mb 0.00 in0.0 mm 0.00 in0.0 mm 0.00 in0.0 mm
03:44 AM 80.1°F26.7°C 64.4°F18.0°C 59% 2.9 mph NW4.7 kmh NW 8.1 mph13.0 kmh 29.88 in1011.9 mb 0.00 in0.0 mm 0.00 in0.0 mm 0.00 in0.0 mm
03:49 AM 80.2°F26.8°C 64.6°F18.1°C 59% 2.9 mph W4.7 kmh W 8.1 mph13.0 kmh 29.88 in1011.9 mb 0.00 in0.0 mm 0.00 in0.0 mm 0.00 in0.0 mm
03:54 AM 80.1°F26.7°C 64.4°F18.0°C 59% 2.9 mph WNW4.7 kmh WNW 6.9 mph11.1 kmh 29.88 in1011.9 mb 0.00 in0.0 mm 0.00 in0.0 mm 0.00 in0.0 mm
03:59 AM 79.9°F26.6°C 64.2°F17.9°C 59% 2.0 mph WNW3.2 kmh WNW 6.0 mph9.7 kmh 29.88 in1011.9 mb 0.00 in0.0 mm 0.00 in0.0 mm 0.00 in0.0 mm
04:04 AM 79.5°F26.4°C 64.4°F18.0°C 60% 2.0 mph W3.2 kmh W 6.0 mph9.7 kmh 29.88 in1011.9 mb 0.00 in0.0 mm 0.00 in0.0 mm 0.00 in0.0 mm
04:09 AM 79.3°F26.3°C 64.2°F17.9°C 60% 2.9 mph WNW4.7 kmh WNW 4.9 mph7.9 kmh 29.88 in1011.9 mb 0.00 in0.0 mm 0.00 in0.0 mm 0.00 in0.0 mm
04:14 AM 79.3°F26.3°C 64.2°F17.9°C 60% 2.9 mph NNW4.7 kmh NNW 6.9 mph11.1 kmh 29.88 in1011.9 mb 0.00 in0.0 mm 0.00 in0.0 mm 0.00 in0.0 mm
04:19 AM 79.2°F26.2°C 64.0°F17.8°C 60% 2.0 mph NW3.2 kmh NW 4.9 mph7.9 kmh 29.88 in1011.9 mb 0.00 in0.0 mm 0.00 in0.0 mm 0.00 in0.0 mm
04:24 AM 79.0°F26.1°C 64.4°F18.0°C 61% 2.0 mph W3.2 kmh W 6.0 mph9.7 kmh 29.88 in1011.9 mb 0.00 in0.0 mm 0.00 in0.0 mm 0.00 in0.0 mm
04:29 AM 78.8°F26.0°C 64.2°F17.9°C 61% 2.0 mph WNW3.2 kmh WNW 6.0 mph9.7 kmh 29.87 in1011.5 mb 0.00 in0.0 mm 0.00 in0.0 mm 0.00 in0.0 mm
04:34 AM 78.6°F25.9°C 64.0°F17.8°C 61% 2.0 mph NW3.2 kmh NW 4.0 mph6.4 kmh 29.87 in1011.5 mb 0.00 in0.0 mm 0.00 in0.0 mm 0.00 in0.0 mm
04:39 AM 78.4°F25.8°C 64.4°F18.0°C 62% 2.0 mph W3.2 kmh W 6.0 mph9.7 kmh 29.87 in1011.5 mb 0.00 in0.0 mm 0.00 in0.0 mm 0.00 in0.0 mm
04:44 AM 78.3°F25.7°C 63.7°F17.6°C 61% 2.9 mph NW4.7 kmh NW 4.9 mph7.9 kmh 29.87 in1011.5 mb 0.00 in0.0 mm 0.00 in0.0 mm 0.00 in0.0 mm
04:49 AM 78.3°F25.7°C 63.7°F17.6°C 61% 2.9 mph NW4.7 kmh NW 7.0 mph11.3 kmh 29.87 in1011.5 mb 0.00 in0.0 mm 0.00 in0.0 mm 0.00 in0.0 mm
04:54 AM 78.3°F25.7°C 63.7°F17.6°C 61% 2.9 mph NW4.7 kmh NW 8.1 mph13.0 kmh 29.87 in1011.5 mb 0.00 in0.0 mm 0.00 in0.0 mm 0.00 in0.0 mm
04:59 AM 78.1°F25.6°C 63.5°F17.5°C 61% 2.9 mph NW4.7 kmh NW 8.9 mph14.3 kmh 29.88 in1011.9 mb 0.00 in0.0 mm 0.00 in0.0 mm 0.00 in0.0 mm
05:04 AM 78.3°F25.7°C 63.7°F17.6°C 61% 2.9 mph NW4.7 kmh NW 6.0 mph9.7 kmh 29.88 in1011.9 mb 0.00 in0.0 mm 0.00 in0.0 mm 0.00 in0.0 mm
05:09 AM 78.4°F25.8°C 63.3°F17.4°C 60% 2.9 mph NW4.7 kmh NW 6.0 mph9.7 kmh 29.88 in1011.9 mb 0.00 in0.0 mm 0.00 in0.0 mm 0.00 in0.0 mm
05:14 AM 78.6°F25.9°C 63.1°F17.3°C 59% 2.9 mph NW4.7 kmh NW 6.0 mph9.7 kmh 29.88 in1011.9 mb 0.00 in0.0 mm 0.00 in0.0 mm 0.00 in0.0 mm
05:19 AM 79.0°F26.1°C 63.5°F17.5°C 59% 2.9 mph W4.7 kmh W 7.0 mph11.3 kmh 29.88 in1011.9 mb 0.00 in0.0 mm 0.00 in0.0 mm 0.00 in0.0 mm
05:24 AM 79.2°F26.2°C 63.1°F17.3°C 58% 2.9 mph WNW4.7 kmh WNW 8.9 mph14.3 kmh 29.88 in1011.9 mb 0.00 in0.0 mm 0.00 in0.0 mm 0.00 in0.0 mm
05:29 AM 79.7°F26.5°C 63.1°F17.3°C 57% 4.0 mph NW6.4 kmh NW 8.1 mph13.0 kmh 29.88 in1011.9 mb 0.00 in0.0 mm 0.00 in0.0 mm 0.00 in0.0 mm
05:34 AM 79.7°F26.5°C 63.1°F17.3°C 57% 2.9 mph WNW4.7 kmh WNW 4.9 mph7.9 kmh 29.88 in1011.9 mb 0.00 in0.0 mm 0.00 in0.0 mm 0.00 in0.0 mm
05:39 AM 79.5°F26.4°C 63.5°F17.5°C 58% 2.0 mph NW3.2 kmh NW 6.0 mph9.7 kmh 29.88 in1011.9 mb 0.00 in0.0 mm 0.00 in0.0 mm 0.00 in0.0 mm
05:44 AM 79.2°F26.2°C 63.1°F17.3°C 58% 2.9 mph NW4.7 kmh NW 6.0 mph9.7 kmh 29.88 in1011.9 mb 0.00 in0.0 mm 0.00 in0.0 mm 0.00 in0.0 mm
05:49 AM 79.0°F26.1°C 63.5°F17.5°C 59% 2.0 mph N3.2 kmh N 6.9 mph11.1 kmh 29.88 in1011.9 mb 0.00 in0.0 mm 0.00 in0.0 mm 0.00 in0.0 mm
05:54 AM 78.8°F26.0°C 63.7°F17.6°C 60% 2.0 mph NW3.2 kmh NW 6.9 mph11.1 kmh 29.88 in1011.9 mb 0.00 in0.0 mm 0.00 in0.0 mm 0.00 in0.0 mm
05:59 AM 78.3°F25.7°C 63.3°F17.4°C 60% 2.9 mph NW4.7 kmh NW 8.9 mph14.3 kmh 29.89 in1012.2 mb 0.00 in0.0 mm 0.00 in0.0 mm 0.00 in0.0 mm
06:04 AM 77.9°F25.5°C 63.3°F17.4°C 61% 4.0 mph NW6.4 kmh NW 8.9 mph14.3 kmh 29.89 in1012.2 mb 0.00 in0.0 mm 0.00 in0.0 mm 0.00 in0.0 mm
06:09 AM 78.1°F25.6°C 63.5°F17.5°C 61% 2.9 mph NW4.7 kmh NW 6.9 mph11.1 kmh 29.89 in1012.2 mb 0.00 in0.0 mm 0.00 in0.0 mm 0.00 in0.0 mm
06:14 AM 78.3°F25.7°C 63.7°F17.6°C 61% 2.0 mph NNW3.2 kmh NNW 4.0 mph6.4 kmh 29.89 in1012.2 mb 0.00 in0.0 mm 0.00 in0.0 mm 0.00 in0.0 mm
06:19 AM 78.4°F25.8°C 63.9°F17.7°C 61% 2.0 mph NNW3.2 kmh NNW 6.0 mph9.7 kmh 29.89 in1012.2 mb 0.00 in0.0 mm 0.00 in0.0 mm 0.00 in0.0 mm
06:24 AM 78.3°F25.7°C 63.7°F17.6°C 61% 2.9 mph W4.7 kmh W 7.0 mph11.3 kmh 29.89 in1012.2 mb 0.00 in0.0 mm 0.00 in0.0 mm 0.00 in0.0 mm
06:29 AM 78.3°F25.7°C 63.7°F17.6°C 61% 2.9 mph NNW4.7 kmh NNW 8.1 mph13.0 kmh 29.89 in1012.2 mb 0.00 in0.0 mm 0.00 in0.0 mm 0.00 in0.0 mm
06:34 AM 78.3°F25.7°C 63.7°F17.6°C 61% 2.9 mph N4.7 kmh N 8.9 mph14.3 kmh 29.89 in1012.2 mb 0.00 in0.0 mm 0.00 in0.0 mm 0.00 in0.0 mm
06:39 AM 78.4°F25.8°C 63.9°F17.7°C 61% 4.0 mph WNW6.4 kmh WNW 8.1 mph13.0 kmh 29.89 in1012.2 mb 0.00 in0.0 mm 0.00 in0.0 mm 0.00 in0.0 mm
06:44 AM 78.8°F26.0°C 63.7°F17.6°C 60% 2.9 mph NW4.7 kmh NW 9.0 mph14.5 kmh 29.89 in1012.2 mb 0.00 in0.0 mm 0.00 in0.0 mm 0.00 in0.0 mm
06:49 AM 79.3°F26.3°C 63.7°F17.6°C 59% 4.0 mph NW6.4 kmh NW 8.9 mph14.3 kmh 29.89 in1012.2 mb 0.00 in0.0 mm 0.00 in0.0 mm 0.00 in0.0 mm
06:54 AM 79.9°F26.6°C 64.2°F17.9°C 59% 4.0 mph NW6.4 kmh NW 6.9 mph11.1 kmh 29.89 in1012.2 mb 0.00 in0.0 mm 0.00 in0.0 mm 0.00 in0.0 mm
06:59 AM 80.2°F26.8°C 64.6°F18.1°C 59% 2.9 mph NW4.7 kmh NW 8.1 mph13.0 kmh 29.89 in1012.2 mb 0.00 in0.0 mm 0.00 in0.0 mm 0.00 in0.0 mm
07:04 AM 80.6°F27.0°C 64.9°F18.3°C 59% 2.9 mph NW4.7 kmh NW 4.9 mph7.9 kmh 29.89 in1012.2 mb 0.00 in0.0 mm 0.00 in0.0 mm 0.00 in0.0 mm
07:09 AM 81.0°F27.2°C 64.8°F18.2°C 58% 2.9 mph NW4.7 kmh NW 6.9 mph11.1 kmh 29.89 in1012.2 mb 0.00 in0.0 mm 0.00 in0.0 mm 0.00 in0.0 mm
07:14 AM 81.1°F27.3°C 64.9°F18.3°C 58% 4.0 mph WNW6.4 kmh WNW 8.9 mph14.3 kmh 29.89 in1012.2 mb 0.00 in0.0 mm 0.00 in0.0 mm 0.00 in0.0 mm
07:19 AM 81.1°F27.3°C 64.9°F18.3°C 58% 4.0 mph WNW6.4 kmh WNW 8.9 mph14.3 kmh 29.89 in1012.2 mb 0.00 in0.0 mm 0.00 in0.0 mm 0.00 in0.0 mm
07:24 AM 81.3°F27.4°C 65.1°F18.4°C 58% 4.0 mph N6.4 kmh N 8.1 mph13.0 kmh 29.89 in1012.2 mb 0.00 in0.0 mm 0.00 in0.0 mm 0.00 in0.0 mm
07:29 AM 81.7°F27.6°C 65.5°F18.6°C 58% 2.9 mph N4.7 kmh N 8.1 mph13.0 kmh 29.89 in1012.2 mb 0.00 in0.0 mm 0.00 in0.0 mm 0.00 in0.0 mm
07:34 AM 81.7°F27.6°C 65.5°F18.6°C 58% 2.9 mph NW4.7 kmh NW 8.1 mph13.0 kmh 29.89 in1012.2 mb 0.00 in0.0 mm 0.00 in0.0 mm 0.00 in0.0 mm
07:39 AM 82.0°F27.8°C 66.4°F19.1°C 59% 2.9 mph NW4.7 kmh NW 6.0 mph9.7 kmh 29.89 in1012.2 mb 0.00 in0.0 mm 0.00 in0.0 mm 0.00 in0.0 mm
07:44 AM 82.6°F28.1°C 66.4°F19.1°C 58% 2.0 mph W3.2 kmh W 6.0 mph9.7 kmh 29.89 in1012.2 mb 0.00 in0.0 mm 0.00 in0.0 mm 0.00 in0.0 mm
07:49 AM 83.1°F28.4°C 66.4°F19.1°C 57% 2.9 mph N4.7 kmh N 7.0 mph11.3 kmh 29.89 in1012.2 mb 0.00 in0.0 mm 0.00 in0.0 mm 0.00 in0.0 mm
07:54 AM 83.7°F28.7°C 66.7°F19.3°C 57% 2.9 mph NW4.7 kmh NW 8.1 mph13.0 kmh 29.89 in1012.2 mb 0.00 in0.0 mm 0.00 in0.0 mm 0.00 in0.0 mm
07:59 AM 84.2°F29.0°C 67.3°F19.6°C 57% 2.9 mph NW4.7 kmh NW 8.1 mph13.0 kmh 29.89 in1012.2 mb 0.00 in0.0 mm 0.00 in0.0 mm 0.00 in0.0 mm
08:04 AM 84.6°F29.2°C 67.1°F19.5°C 56% 4.0 mph WNW6.4 kmh WNW 8.1 mph13.0 kmh 29.89 in1012.2 mb 0.00 in0.0 mm 0.00 in0.0 mm 0.00 in0.0 mm
08:09 AM 84.7°F29.3°C 67.3°F19.6°C 56% 4.0 mph NW6.4 kmh NW 8.1 mph13.0 kmh 29.89 in1012.2 mb 0.00 in0.0 mm 0.00 in0.0 mm 0.00 in0.0 mm
08:14 AM 85.3°F29.6°C 67.8°F19.9°C 56% 4.0 mph NNW6.4 kmh NNW 9.0 mph14.5 kmh 29.89 in1012.2 mb 0.00 in0.0 mm 0.00 in0.0 mm 0.00 in0.0 mm
08:19 AM 85.6°F29.8°C 68.2°F20.1°C 56% 2.9 mph NW4.7 kmh NW 8.1 mph13.0 kmh 29.89 in1012.2 mb 0.00 in0.0 mm 0.00 in0.0 mm 0.00 in0.0 mm
08:24 AM 85.8°F29.9°C 68.4°F20.2°C 56% 4.0 mph WNW6.4 kmh WNW 8.1 mph13.0 kmh 29.89 in1012.2 mb 0.00 in0.0 mm 0.00 in0.0 mm 0.00 in0.0 mm
08:29 AM 86.2°F30.1°C 68.7°F20.4°C 56% 4.0 mph 6.4 kmh 8.1 mph13.0 kmh 29.89 in1012.2 mb 0.00 in0.0 mm 0.00 in0.0 mm 0.00 in0.0 mm
08:34 AM 86.4°F30.2°C 69.3°F20.7°C 57% 4.0 mph W6.4 kmh W 9.0 mph14.5 kmh 29.89 in1012.2 mb 0.00 in0.0 mm 0.00 in0.0 mm 0.00 in0.0 mm
08:39 AM 86.7°F30.4°C 69.1°F20.6°C 56% 2.9 mph NW4.7 kmh NW 8.9 mph14.3 kmh 29.89 in1012.2 mb 0.00 in0.0 mm 0.00 in0.0 mm 0.00 in0.0 mm
08:44 AM 86.9°F30.5°C 69.3°F20.7°C 56% 2.9 mph NW4.7 kmh NW 10.1 mph16.3 kmh 29.90 in1012.5 mb 0.00 in0.0 mm 0.00 in0.0 mm 0.00 in0.0 mm
08:49 AM 87.4°F30.8°C 69.3°F20.7°C 55% 2.9 mph NW4.7 kmh NW 6.0 mph9.7 kmh 29.90 in1012.5 mb 0.00 in0.0 mm 0.00 in0.0 mm 0.00 in0.0 mm
08:54 AM 87.4°F30.8°C 68.7°F20.4°C 54% 2.9 mph NNW4.7 kmh NNW 8.1 mph13.0 kmh 29.90 in1012.5 mb 0.00 in0.0 mm 0.00 in0.0 mm 0.00 in0.0 mm
08:59 AM 86.9°F30.5°C 69.8°F21.0°C 57% 4.0 mph NE6.4 kmh NE 8.9 mph14.3 kmh 29.90 in1012.5 mb 0.00 in0.0 mm 0.00 in0.0 mm 0.00 in0.0 mm
09:04 AM 86.0°F30.0°C 69.4°F20.8°C 58% 4.9 mph NE7.9 kmh NE 10.1 mph16.3 kmh 29.90 in1012.5 mb 0.00 in0.0 mm 0.00 in0.0 mm 0.00 in0.0 mm
09:09 AM 85.6°F29.8°C 69.6°F20.9°C 59% 6.0 mph NNE9.7 kmh NNE 8.9 mph14.3 kmh 29.90 in1012.5 mb 0.00 in0.0 mm 0.00 in0.0 mm 0.00 in0.0 mm
09:14 AM 85.3°F29.6°C 70.3°F21.3°C 61% 4.9 mph NE7.9 kmh NE 8.9 mph14.3 kmh 29.90 in1012.5 mb 0.00 in0.0 mm 0.00 in0.0 mm 0.00 in0.0 mm
09:19 AM 85.1°F29.5°C 71.1°F21.7°C 63% 4.9 mph ENE7.9 kmh ENE 10.0 mph16.1 kmh 29.90 in1012.5 mb 0.00 in0.0 mm 0.00 in0.0 mm 0.00 in0.0 mm
09:24 AM 84.9°F29.4°C 71.8°F22.1°C 65% 6.0 mph ENE9.7 kmh ENE 11.0 mph17.7 kmh 29.90 in1012.5 mb 0.00 in0.0 mm 0.00 in0.0 mm 0.00 in0.0 mm
09:29 AM 84.7°F29.3°C 72.1°F22.3°C 66% 6.0 mph NNE9.7 kmh NNE 10.1 mph16.3 kmh 29.90 in1012.5 mb 0.00 in0.0 mm 0.00 in0.0 mm 0.00 in0.0 mm
09:34 AM 85.1°F29.5°C 72.5°F22.5°C 66% 6.0 mph NE9.7 kmh NE 10.1 mph16.3 kmh 29.90 in1012.5 mb 0.00 in0.0 mm 0.00 in0.0 mm 0.00 in0.0 mm
09:39 AM 85.1°F29.5°C 72.0°F22.2°C 65% 6.0 mph NE9.7 kmh NE 12.1 mph19.5 kmh 29.90 in1012.5 mb 0.00 in0.0 mm 0.00 in0.0 mm 0.00 in0.0 mm
09:44 AM 85.3°F29.6°C 72.1°F22.3°C 65% 6.0 mph ENE9.7 kmh ENE 11.0 mph17.7 kmh 29.90 in1012.5 mb 0.00 in0.0 mm 0.00 in0.0 mm 0.00 in0.0 mm
09:49 AM 85.1°F29.5°C 72.5°F22.5°C 66% 6.0 mph ENE9.7 kmh ENE 11.0 mph17.7 kmh 29.90 in1012.5 mb 0.00 in0.0 mm 0.00 in0.0 mm 0.00 in0.0 mm
09:54 AM 85.1°F29.5°C 72.5°F22.5°C 66% 6.9 mph NE11.1 kmh NE 10.1 mph16.3 kmh 29.90 in1012.5 mb 0.00 in0.0 mm 0.00 in0.0 mm 0.00 in0.0 mm
09:59 AM 85.1°F29.5°C 72.5°F22.5°C 66% 6.9 mph NNE11.1 kmh NNE 10.1 mph16.3 kmh 29.90 in1012.5 mb 0.00 in0.0 mm 0.00 in0.0 mm 0.00 in0.0 mm
10:04 AM 84.7°F29.3°C 72.5°F22.5°C 67% 6.9 mph NNE11.1 kmh NNE 12.1 mph19.5 kmh 29.90 in1012.5 mb 0.00 in0.0 mm 0.00 in0.0 mm 0.00 in0.0 mm
10:09 AM 84.7°F29.3°C 72.5°F22.5°C 67% 6.9 mph NE11.1 kmh NE 12.1 mph19.5 kmh 29.90 in1012.5 mb 0.00 in0.0 mm 0.00 in0.0 mm 0.00 in0.0 mm
10:14 AM 84.6°F29.2°C 72.9°F22.7°C 68% 6.9 mph NE11.1 kmh NE 12.1 mph19.5 kmh 29.90 in1012.5 mb 0.00 in0.0 mm 0.00 in0.0 mm 0.00 in0.0 mm
10:19 AM 84.6°F29.2°C 72.9°F22.7°C 68% 6.9 mph NE11.1 kmh NE 13.0 mph20.9 kmh 29.90 in1012.5 mb 0.00 in0.0 mm 0.00 in0.0 mm 0.00 in0.0 mm
10:24 AM 84.9°F29.4°C 73.2°F22.9°C 68% 6.9 mph NE11.1 kmh NE 11.0 mph17.7 kmh 29.90 in1012.5 mb 0.00 in0.0 mm 0.00 in0.0 mm 0.00 in0.0 mm
10:29 AM 85.6°F29.8°C 73.4°F23.0°C 67% 6.0 mph NE9.7 kmh NE 10.1 mph16.3 kmh 29.90 in1012.5 mb 0.00 in0.0 mm 0.00 in0.0 mm 0.00 in0.0 mm
10:34 AM 85.6°F29.8°C 73.4°F23.0°C 67% 6.0 mph E9.7 kmh E 11.0 mph17.7 kmh 29.90 in1012.5 mb 0.00 in0.0 mm 0.00 in0.0 mm 0.00 in0.0 mm
10:39 AM 85.5°F29.7°C 72.9°F22.7°C 66% 6.0 mph NNE9.7 kmh NNE 13.0 mph20.9 kmh 29.90 in1012.5 mb 0.00 in0.0 mm 0.00 in0.0 mm 0.00 in0.0 mm
10:44 AM 85.6°F29.8°C 73.4°F23.0°C 67% 6.0 mph NE9.7 kmh NE 11.0 mph17.7 kmh 29.90 in1012.5 mb 0.00 in0.0 mm 0.00 in0.0 mm 0.00 in0.0 mm
10:49 AM 85.6°F29.8°C 73.4°F23.0°C 67% 6.9 mph NE11.1 kmh NE 11.0 mph17.7 kmh 29.90 in1012.5 mb 0.00 in0.0 mm 0.00 in0.0 mm 0.00 in0.0 mm
10:54 AM 86.0°F30.0°C 73.8°F23.2°C 67% 6.0 mph 9.7 kmh 8.9 mph14.3 kmh 29.90 in1012.5 mb 0.00 in0.0 mm 0.00 in0.0 mm 0.00 in0.0 mm
10:59 AM 85.6°F29.8°C 73.4°F23.0°C 67% 6.0 mph N9.7 kmh N 11.0 mph17.7 kmh 29.90 in1012.5 mb 0.00 in0.0 mm 0.00 in0.0 mm 0.00 in0.0 mm
11:04 AM 86.2°F30.1°C 73.9°F23.3°C 67% 6.0 mph N9.7 kmh N 10.1 mph16.3 kmh 29.90 in1012.5 mb 0.00 in0.0 mm 0.00 in0.0 mm 0.00 in0.0 mm
11:09 AM 85.6°F29.8°C 73.9°F23.3°C 68% 6.0 mph NNW9.7 kmh NNW 12.1 mph19.5 kmh 29.90 in1012.5 mb 0.00 in0.0 mm 0.00 in0.0 mm 0.00 in0.0 mm
11:14 AM 85.6°F29.8°C 73.4°F23.0°C 67% 6.9 mph N11.1 kmh N 10.1 mph16.3 kmh 29.90 in1012.5 mb 0.00 in0.0 mm 0.00 in0.0 mm 0.00 in0.0 mm
11:19 AM 85.8°F29.9°C 73.6°F23.1°C 67% 6.0 mph N9.7 kmh N 10.1 mph16.3 kmh 29.90 in1012.5 mb 0.00 in0.0 mm 0.00 in0.0 mm 0.00 in0.0 mm
11:24 AM 86.2°F30.1°C 73.9°F23.3°C 67% 6.0 mph NE9.7 kmh NE 11.0 mph17.7 kmh 29.90 in1012.5 mb 0.00 in0.0 mm 0.00 in0.0 mm 0.00 in0.0 mm
11:29 AM 85.8°F29.9°C 73.9°F23.3°C 68% 6.9 mph NE11.1 kmh NE 12.1 mph19.5 kmh 29.90 in1012.5 mb 0.00 in0.0 mm 0.00 in0.0 mm 0.00 in0.0 mm
11:34 AM 85.6°F29.8°C 74.7°F23.7°C 70% 8.1 mph NNE13.0 kmh NNE 12.1 mph19.5 kmh 29.90 in1012.5 mb 0.00 in0.0 mm 0.00 in0.0 mm 0.00 in0.0 mm
11:39 AM 85.6°F29.8°C 75.2°F24.0°C 71% 6.9 mph NE11.1 kmh NE 11.0 mph17.7 kmh 29.90 in1012.5 mb 0.00 in0.0 mm 0.00 in0.0 mm 0.00 in0.0 mm
11:44 AM 85.3°F29.6°C 75.2°F24.0°C 72% 6.0 mph NE9.7 kmh NE 11.0 mph17.7 kmh 29.90 in1012.5 mb 0.00 in0.0 mm 0.00 in0.0 mm 0.00 in0.0 mm
11:49 AM 84.9°F29.4°C 74.8°F23.8°C 72% 6.0 mph NNE9.7 kmh NNE 11.0 mph17.7 kmh 29.90 in1012.5 mb 0.00 in0.0 mm 0.00 in0.0 mm 0.00 in0.0 mm
11:54 AM 85.3°F29.6°C 75.2°F24.0°C 72% 6.0 mph NE9.7 kmh NE 10.1 mph16.3 kmh 29.90 in1012.5 mb 0.00 in0.0 mm 0.00 in0.0 mm 0.00 in0.0 mm
11:59 AM 84.9°F29.4°C 74.8°F23.8°C 72% 6.9 mph NE11.1 kmh NE 11.0 mph17.7 kmh 29.90 in1012.5 mb 0.00 in0.0 mm 0.00 in0.0 mm 0.00 in0.0 mm
12:04 PM 85.5°F29.7°C 75.4°F24.1°C 72% 6.9 mph E11.1 kmh E 10.1 mph16.3 kmh 29.90 in1012.5 mb 0.00 in0.0 mm 0.00 in0.0 mm 0.00 in0.0 mm
12:09 PM 85.3°F29.6°C 75.2°F24.0°C 72% 6.0 mph NE9.7 kmh NE 10.1 mph16.3 kmh 29.90 in1012.5 mb 0.00 in0.0 mm 0.00 in0.0 mm 0.00 in0.0 mm
12:14 PM 85.3°F29.6°C 74.8°F23.8°C 71% 6.0 mph N9.7 kmh N 12.1 mph19.5 kmh 29.90 in1012.5 mb 0.00 in0.0 mm 0.00 in0.0 mm 0.00 in0.0 mm
12:19 PM 85.1°F29.5°C 74.7°F23.7°C 71% 6.9 mph NE11.1 kmh NE 11.0 mph17.7 kmh 29.89 in1012.2 mb 0.00 in0.0 mm 0.00 in0.0 mm 0.00 in0.0 mm
12:24 PM 84.9°F29.4°C 74.5°F23.6°C 71% 8.1 mph NE13.0 kmh NE 12.1 mph19.5 kmh 29.89 in1012.2 mb 0.00 in0.0 mm 0.00 in0.0 mm 0.00 in0.0 mm
12:29 PM 85.3°F29.6°C 74.8°F23.8°C 71% 8.1 mph ENE13.0 kmh ENE 11.0 mph17.7 kmh 29.89 in1012.2 mb 0.00 in0.0 mm 0.00 in0.0 mm 0.00 in0.0 mm
12:34 PM 85.5°F29.7°C 75.0°F23.9°C 71% 6.9 mph NNE11.1 kmh NNE 11.0 mph17.7 kmh 29.89 in1012.2 mb 0.00 in0.0 mm 0.00 in0.0 mm 0.00 in0.0 mm
12:39 PM 85.5°F29.7°C 75.0°F23.9°C 71% 6.0 mph N9.7 kmh N 10.1 mph16.3 kmh 29.89 in1012.2 mb 0.00 in0.0 mm 0.00 in0.0 mm 0.00 in0.0 mm
12:44 PM 85.6°F29.8°C 75.6°F24.2°C 72% 6.0 mph NE9.7 kmh NE 10.1 mph16.3 kmh 29.89 in1012.2 mb 0.00 in0.0 mm 0.00 in0.0 mm 0.00 in0.0 mm
12:49 PM 85.3°F29.6°C 75.2°F24.0°C 72% 6.9 mph NE11.1 kmh NE 13.0 mph20.9 kmh 29.89 in1012.2 mb 0.00 in0.0 mm 0.00 in0.0 mm 0.00 in0.0 mm
12:54 PM 85.3°F29.6°C 75.2°F24.0°C 72% 6.9 mph ENE11.1 kmh ENE 12.1 mph19.5 kmh 29.89 in1012.2 mb 0.00 in0.0 mm 0.00 in0.0 mm 0.00 in0.0 mm
12:59 PM 85.3°F29.6°C 75.6°F24.2°C 73% 6.9 mph NE11.1 kmh NE 12.1 mph19.5 kmh 29.89 in1012.2 mb 0.00 in0.0 mm 0.00 in0.0 mm 0.00 in0.0 mm
01:04 PM 85.3°F29.6°C 75.6°F24.2°C 73% 8.1 mph NE13.0 kmh NE 12.1 mph19.5 kmh 29.89 in1012.2 mb 0.00 in0.0 mm 0.00 in0.0 mm 0.00 in0.0 mm
01:09 PM 85.5°F29.7°C 75.7°F24.3°C 73% 6.9 mph NE11.1 kmh NE 11.0 mph17.7 kmh 29.89 in1012.2 mb 0.00 in0.0 mm 0.00 in0.0 mm 0.00 in0.0 mm
01:14 PM 85.3°F29.6°C 75.6°F24.2°C 73% 6.9 mph NNW11.1 kmh NNW 12.1 mph19.5 kmh 29.89 in1012.2 mb 0.00 in0.0 mm 0.00 in0.0 mm 0.00 in0.0 mm
01:19 PM 85.6°F29.8°C 75.9°F24.4°C 73% 6.9 mph NE11.1 kmh NE 11.0 mph17.7 kmh 29.89 in1012.2 mb 0.00 in0.0 mm 0.00 in0.0 mm 0.00 in0.0 mm
01:24 PM 85.3°F29.6°C 75.6°F24.2°C 73% 6.9 mph NE11.1 kmh NE 12.1 mph19.5 kmh 29.89 in1012.2 mb 0.00 in0.0 mm 0.00 in0.0 mm 0.00 in0.0 mm
01:29 PM 84.9°F29.4°C 75.2°F24.0°C 73% 8.1 mph ENE13.0 kmh ENE 13.0 mph20.9 kmh 29.89 in1012.2 mb 0.00 in0.0 mm 0.00 in0.0 mm 0.00 in0.0 mm
01:34 PM 85.3°F29.6°C 75.2°F24.0°C 72% 6.9 mph N11.1 kmh N 12.1 mph19.5 kmh 29.89 in1012.2 mb 0.00 in0.0 mm 0.00 in0.0 mm 0.00 in0.0 mm
01:39 PM 85.5°F29.7°C 75.7°F24.3°C 73% 6.0 mph ENE9.7 kmh ENE 12.1 mph19.5 kmh 29.89 in1012.2 mb 0.00 in0.0 mm 0.00 in0.0 mm 0.00 in0.0 mm
01:44 PM 85.6°F29.8°C 75.9°F24.4°C 73% 6.0 mph NE9.7 kmh NE 11.0 mph17.7 kmh 29.89 in1012.2 mb 0.00 in0.0 mm 0.00 in0.0 mm 0.00 in0.0 mm
01:49 PM 85.5°F29.7°C 75.7°F24.3°C 73% 6.0 mph N9.7 kmh N 11.0 mph17.7 kmh 29.89 in1012.2 mb 0.00 in0.0 mm 0.00 in0.0 mm 0.00 in0.0 mm
01:54 PM 85.5°F29.7°C 75.7°F24.3°C 73% 6.0 mph NNE9.7 kmh NNE 11.0 mph17.7 kmh 29.88 in1011.9 mb 0.00 in0.0 mm 0.00 in0.0 mm 0.00 in0.0 mm
01:59 PM 85.3°F29.6°C 76.1°F24.5°C 74% 6.0 mph N9.7 kmh N 11.0 mph17.7 kmh 29.89 in1012.2 mb 0.00 in0.0 mm 0.00 in0.0 mm 0.00 in0.0 mm
02:04 PM 84.9°F29.4°C 75.7°F24.3°C 74% 6.0 mph E9.7 kmh E 11.0 mph17.7 kmh 29.88 in1011.9 mb 0.00 in0.0 mm 0.00 in0.0 mm 0.00 in0.0 mm
02:09 PM 84.7°F29.3°C 75.9°F24.4°C 75% 6.9 mph N11.1 kmh N 11.0 mph17.7 kmh 29.88 in1011.9 mb 0.00 in0.0 mm 0.00 in0.0 mm 0.00 in0.0 mm
02:14 PM 84.7°F29.3°C 75.6°F24.2°C 74% 6.0 mph NNE9.7 kmh NNE 11.0 mph17.7 kmh 29.88 in1011.9 mb 0.00 in0.0 mm 0.00 in0.0 mm 0.00 in0.0 mm
02:19 PM 85.3°F29.6°C 75.6°F24.2°C 73% 6.0 mph N9.7 kmh N 10.1 mph16.3 kmh 29.88 in1011.9 mb 0.00 in0.0 mm 0.00 in0.0 mm 0.00 in0.0 mm
02:24 PM 85.3°F29.6°C 75.2°F24.0°C 72% 6.0 mph NE9.7 kmh NE 11.0 mph17.7 kmh 29.88 in1011.9 mb 0.00 in0.0 mm 0.00 in0.0 mm 0.00 in0.0 mm
02:29 PM 85.1°F29.5°C 75.0°F23.9°C 72% 6.0 mph N9.7 kmh N 11.0 mph17.7 kmh 29.88 in1011.9 mb 0.00 in0.0 mm 0.00 in0.0 mm 0.00 in0.0 mm
02:34 PM 85.1°F29.5°C 75.0°F23.9°C 72% 6.9 mph NNE11.1 kmh NNE 10.1 mph16.3 kmh 29.88 in1011.9 mb 0.00 in0.0 mm 0.00 in0.0 mm 0.00 in0.0 mm
02:39 PM 85.3°F29.6°C 75.2°F24.0°C 72% 6.0 mph NE9.7 kmh NE 10.1 mph16.3 kmh 29.88 in1011.9 mb 0.00 in0.0 mm 0.00 in0.0 mm 0.00 in0.0 mm
02:44 PM 85.6°F29.8°C 75.6°F24.2°C 72% 4.9 mph ENE7.9 kmh ENE 10.1 mph16.3 kmh 29.88 in1011.9 mb 0.00 in0.0 mm 0.00 in0.0 mm 0.00 in0.0 mm
02:49 PM 85.3°F29.6°C 74.3°F23.5°C 70% 6.0 mph NNE9.7 kmh NNE 13.0 mph20.9 kmh 29.88 in1011.9 mb 0.00 in0.0 mm 0.00 in0.0 mm 0.00 in0.0 mm
02:54 PM 84.9°F29.4°C 74.5°F23.6°C 71% 6.9 mph NE11.1 kmh NE 11.0 mph17.7 kmh 29.88 in1011.9 mb 0.00 in0.0 mm 0.00 in0.0 mm 0.00 in0.0 mm
02:59 PM 84.9°F29.4°C 74.8°F23.8°C 72% 6.9 mph NE11.1 kmh NE 11.0 mph17.7 kmh 29.88 in1011.9 mb 0.00 in0.0 mm 0.00 in0.0 mm 0.00 in0.0 mm
03:04 PM 85.3°F29.6°C 75.2°F24.0°C 72% 6.9 mph NNW11.1 kmh NNW 11.0 mph17.7 kmh 29.88 in1011.9 mb 0.00 in0.0 mm 0.00 in0.0 mm 0.00 in0.0 mm
03:09 PM 84.7°F29.3°C 74.7°F23.7°C 72% 6.9 mph NNE11.1 kmh NNE 12.1 mph19.5 kmh 29.88 in1011.9 mb 0.00 in0.0 mm 0.00 in0.0 mm 0.00 in0.0 mm
03:14 PM 84.7°F29.3°C 74.7°F23.7°C 72% 8.1 mph NE13.0 kmh NE 12.1 mph19.5 kmh 29.88 in1011.9 mb 0.00 in0.0 mm 0.00 in0.0 mm 0.00 in0.0 mm
03:19 PM 84.9°F29.4°C 74.8°F23.8°C 72% 6.9 mph N11.1 kmh N 8.9 mph14.3 kmh 29.88 in1011.9 mb 0.00 in0.0 mm 0.00 in0.0 mm 0.00 in0.0 mm
03:24 PM 84.6°F29.2°C 75.0°F23.9°C 73% 6.9 mph NE11.1 kmh NE 13.0 mph20.9 kmh 29.88 in1011.9 mb 0.00 in0.0 mm 0.00 in0.0 mm 0.00 in0.0 mm
03:29 PM 84.4°F29.1°C 75.2°F24.0°C 74% 8.1 mph N13.0 kmh N 12.1 mph19.5 kmh 29.88 in1011.9 mb 0.00 in0.0 mm 0.00 in0.0 mm 0.00 in0.0 mm
03:34 PM 84.6°F29.2°C 75.4°F24.1°C 74% 8.1 mph N13.0 kmh N 12.1 mph19.5 kmh 29.88 in1011.9 mb 0.00 in0.0 mm 0.00 in0.0 mm 0.00 in0.0 mm
03:39 PM 84.7°F29.3°C 75.2°F24.0°C 73% 6.9 mph N11.1 kmh N 11.0 mph17.7 kmh 29.88 in1011.9 mb 0.00 in0.0 mm 0.00 in0.0 mm 0.00 in0.0 mm
03:44 PM 84.6°F29.2°C 75.0°F23.9°C 73% 6.9 mph NNW11.1 kmh NNW 12.1 mph19.5 kmh 29.88 in1011.9 mb 0.00 in0.0 mm 0.00 in0.0 mm 0.00 in0.0 mm
03:49 PM 84.6°F29.2°C 75.0°F23.9°C 73% 8.1 mph NE13.0 kmh NE 11.0 mph17.7 kmh 29.88 in1011.9 mb 0.00 in0.0 mm 0.00 in0.0 mm 0.00 in0.0 mm
03:54 PM 84.7°F29.3°C 74.7°F23.7°C 72% 6.9 mph N11.1 kmh N 12.1 mph19.5 kmh 29.88 in1011.9 mb 0.00 in0.0 mm 0.00 in0.0 mm 0.00 in0.0 mm
03:59 PM 84.6°F29.2°C 74.5°F23.6°C 72% 8.1 mph NNE13.0 kmh NNE 13.0 mph20.9 kmh 29.88 in1011.9 mb 0.00 in0.0 mm 0.00 in0.0 mm 0.00 in0.0 mm
04:04 PM 84.7°F29.3°C 74.3°F23.5°C 71% 8.1 mph NE13.0 kmh NE 12.1 mph19.5 kmh 29.88 in1011.9 mb 0.00 in0.0 mm 0.00 in0.0 mm 0.00 in0.0 mm
04:09 PM 84.6°F29.2°C 74.1°F23.4°C 71% 8.1 mph NE13.0 kmh NE 11.0 mph17.7 kmh 29.88 in1011.9 mb 0.00 in0.0 mm 0.00 in0.0 mm 0.00 in0.0 mm
04:14 PM 84.6°F29.2°C 74.1°F23.4°C 71% 6.9 mph NE11.1 kmh NE 11.0 mph17.7 kmh 29.88 in1011.9 mb 0.00 in0.0 mm 0.00 in0.0 mm 0.00 in0.0 mm
04:24 PM 84.6°F29.2°C 73.8°F23.2°C 70% 6.9 mph NE11.1 kmh NE 12.1 mph19.5 kmh 29.88 in1011.9 mb 0.00 in0.0 mm 0.00 in0.0 mm 0.00 in0.0 mm
04:29 PM 84.7°F29.3°C 73.9°F23.3°C 70% 6.9 mph N11.1 kmh N 13.0 mph20.9 kmh 29.88 in1011.9 mb 0.00 in0.0 mm 0.00 in0.0 mm 0.00 in0.0 mm
04:34 PM 84.7°F29.3°C 73.4°F23.0°C 69% 6.9 mph NNE11.1 kmh NNE 12.1 mph19.5 kmh 29.88 in1011.9 mb 0.00 in0.0 mm 0.00 in0.0 mm 0.00 in0.0 mm
04:39 PM 84.9°F29.4°C 73.2°F22.9°C 68% 6.9 mph NNE11.1 kmh NNE 13.0 mph20.9 kmh 29.87 in1011.5 mb 0.00 in0.0 mm 0.00 in0.0 mm 0.00 in0.0 mm
04:44 PM 84.9°F29.4°C 73.2°F22.9°C 68% 6.9 mph N11.1 kmh N 13.0 mph20.9 kmh 29.87 in1011.5 mb 0.00 in0.0 mm 0.00 in0.0 mm 0.00 in0.0 mm
04:49 PM 84.9°F29.4°C 73.6°F23.1°C 69% 6.9 mph NNE11.1 kmh NNE 11.0 mph17.7 kmh 29.87 in1011.5 mb 0.00 in0.0 mm 0.00 in0.0 mm 0.00 in0.0 mm
04:54 PM 84.7°F29.3°C 73.4°F23.0°C 69% 6.9 mph NNE11.1 kmh NNE 11.0 mph17.7 kmh 29.87 in1011.5 mb 0.00 in0.0 mm 0.00 in0.0 mm 0.00 in0.0 mm
04:59 PM 84.6°F29.2°C 73.2°F22.9°C 69% 8.1 mph NE13.0 kmh NE 13.0 mph20.9 kmh 29.87 in1011.5 mb 0.00 in0.0 mm 0.00 in0.0 mm 0.00 in0.0 mm
05:04 PM 84.4°F29.1°C 73.0°F22.8°C 69% 8.1 mph N13.0 kmh N 13.0 mph20.9 kmh 29.87 in1011.5 mb 0.00 in0.0 mm 0.00 in0.0 mm 0.00 in0.0 mm
05:09 PM 84.6°F29.2°C 73.8°F23.2°C 70% 6.9 mph NNW11.1 kmh NNW 11.0 mph17.7 kmh 29.87 in1011.5 mb 0.00 in0.0 mm 0.00 in0.0 mm 0.00 in0.0 mm
05:14 PM 84.6°F29.2°C 73.2°F22.9°C 69% 6.0 mph 9.7 kmh 11.0 mph17.7 kmh 29.87 in1011.5 mb 0.00 in0.0 mm 0.00 in0.0 mm 0.00 in0.0 mm
05:19 PM 84.4°F29.1°C 73.6°F23.1°C 70% 6.9 mph N11.1 kmh N 11.0 mph17.7 kmh 29.87 in1011.5 mb 0.00 in0.0 mm 0.00 in0.0 mm 0.00 in0.0 mm
05:24 PM 84.2°F29.0°C 72.9°F22.7°C 69% 6.9 mph N11.1 kmh N 12.1 mph19.5 kmh 29.87 in1011.5 mb 0.00 in0.0 mm 0.00 in0.0 mm 0.00 in0.0 mm
05:29 PM 84.4°F29.1°C 73.0°F22.8°C 69% 6.0 mph NNE9.7 kmh NNE 12.1 mph19.5 kmh 29.87 in1011.5 mb 0.00 in0.0 mm 0.00 in0.0 mm 0.00 in0.0 mm
05:34 PM 84.6°F29.2°C 72.3°F22.4°C 67% 6.9 mph N11.1 kmh N 12.1 mph19.5 kmh 29.87 in1011.5 mb 0.00 in0.0 mm 0.00 in0.0 mm 0.00 in0.0 mm
05:39 PM 84.7°F29.3°C 73.0°F22.8°C 68% 6.9 mph NNE11.1 kmh NNE 10.1 mph16.3 kmh 29.87 in1011.5 mb 0.00 in0.0 mm 0.00 in0.0 mm 0.00 in0.0 mm
05:44 PM 84.7°F29.3°C 73.0°F22.8°C 68% 6.0 mph NNE9.7 kmh NNE 8.9 mph14.3 kmh 29.87 in1011.5 mb 0.00 in0.0 mm 0.00 in0.0 mm 0.00 in0.0 mm
05:49 PM 84.6°F29.2°C 72.9°F22.7°C 68% 6.0 mph NNE9.7 kmh NNE 11.0 mph17.7 kmh 29.87 in1011.5 mb 0.00 in0.0 mm 0.00 in0.0 mm 0.00 in0.0 mm
05:54 PM 84.6°F29.2°C 72.3°F22.4°C 67% 6.0 mph N9.7 kmh N 11.0 mph17.7 kmh 29.87 in1011.5 mb 0.00 in0.0 mm 0.00 in0.0 mm 0.00 in0.0 mm
05:59 PM 84.6°F29.2°C 72.3°F22.4°C 67% 4.9 mph N7.9 kmh N 8.9 mph14.3 kmh 29.87 in1011.5 mb 0.00 in0.0 mm 0.00 in0.0 mm 0.00 in0.0 mm
06:04 PM 84.6°F29.2°C 72.3°F22.4°C 67% 4.9 mph NNW7.9 kmh NNW 8.1 mph13.0 kmh 29.87 in1011.5 mb 0.00 in0.0 mm 0.00 in0.0 mm 0.00 in0.0 mm
06:09 PM 84.4°F29.1°C 71.8°F22.1°C 66% 4.9 mph NNE7.9 kmh NNE 10.1 mph16.3 kmh 29.87 in1011.5 mb 0.00 in0.0 mm 0.00 in0.0 mm 0.00 in0.0 mm
06:14 PM 84.4°F29.1°C 71.8°F22.1°C 66% 6.0 mph 9.7 kmh 8.9 mph14.3 kmh 29.88 in1011.9 mb 0.00 in0.0 mm 0.00 in0.0 mm 0.00 in0.0 mm
06:19 PM 84.4°F29.1°C 70.9°F21.6°C 64% 4.9 mph 7.9 kmh 8.9 mph14.3 kmh 29.88 in1011.9 mb 0.00 in0.0 mm 0.00 in0.0 mm 0.00 in0.0 mm
06:24 PM 84.6°F29.2°C 71.1°F21.7°C 64% 4.9 mph NNE7.9 kmh NNE 8.1 mph13.0 kmh 29.88 in1011.9 mb 0.00 in0.0 mm 0.00 in0.0 mm 0.00 in0.0 mm
06:29 PM 84.6°F29.2°C 71.4°F21.9°C 65% 4.0 mph NNW6.4 kmh NNW 8.1 mph13.0 kmh 29.88 in1011.9 mb 0.00 in0.0 mm 0.00 in0.0 mm 0.00 in0.0 mm
06:34 PM 84.4°F29.1°C 70.9°F21.6°C 64% 4.0 mph N6.4 kmh N 9.0 mph14.5 kmh 29.88 in1011.9 mb 0.00 in0.0 mm 0.00 in0.0 mm 0.00 in0.0 mm
06:39 PM 84.4°F29.1°C 71.2°F21.8°C 65% 4.9 mph N7.9 kmh N 8.1 mph13.0 kmh 29.88 in1011.9 mb 0.00 in0.0 mm 0.00 in0.0 mm 0.00 in0.0 mm
06:44 PM 84.4°F29.1°C 71.2°F21.8°C 65% 4.0 mph 6.4 kmh 8.1 mph13.0 kmh 29.88 in1011.9 mb 0.00 in0.0 mm 0.00 in0.0 mm 0.00 in0.0 mm
06:49 PM 84.0°F28.9°C 71.1°F21.7°C 65% 4.0 mph NNW6.4 kmh NNW 6.9 mph11.1 kmh 29.88 in1011.9 mb 0.00 in0.0 mm 0.00 in0.0 mm 0.00 in0.0 mm
06:54 PM 84.0°F28.9°C 70.5°F21.4°C 64% 4.0 mph N6.4 kmh N 8.1 mph13.0 kmh 29.88 in1011.9 mb 0.00 in0.0 mm 0.00 in0.0 mm 0.00 in0.0 mm
06:59 PM 84.2°F29.0°C 70.7°F21.5°C 64% 4.0 mph NNE6.4 kmh NNE 6.0 mph9.7 kmh 29.88 in1011.9 mb 0.00 in0.0 mm 0.00 in0.0 mm 0.00 in0.0 mm
07:04 PM 84.2°F29.0°C 71.2°F21.8°C 65% 2.9 mph NNW4.7 kmh NNW 4.9 mph7.9 kmh 29.88 in1011.9 mb 0.00 in0.0 mm 0.00 in0.0 mm 0.00 in0.0 mm
07:09 PM 84.0°F28.9°C 70.5°F21.4°C 64% 2.9 mph N4.7 kmh N 6.0 mph9.7 kmh 29.89 in1012.2 mb 0.00 in0.0 mm 0.00 in0.0 mm 0.00 in0.0 mm
07:14 PM 83.8°F28.8°C 69.4°F20.8°C 62% 2.9 mph 4.7 kmh 4.9 mph7.9 kmh 29.89 in1012.2 mb 0.00 in0.0 mm 0.00 in0.0 mm 0.00 in0.0 mm
07:20 PM 83.8°F28.8°C 68.5°F20.3°C 60% 2.9 mph N4.7 kmh N 4.9 mph7.9 kmh 29.89 in1012.2 mb 0.00 in0.0 mm 0.00 in0.0 mm 0.00 in0.0 mm
07:25 PM 84.0°F28.9°C 69.1°F20.6°C 61% 2.0 mph N3.2 kmh N 4.0 mph6.4 kmh 29.89 in1012.2 mb 0.00 in0.0 mm 0.00 in0.0 mm 0.00 in0.0 mm
07:30 PM 83.8°F28.8°C 69.4°F20.8°C 62% 2.0 mph N3.2 kmh N 4.0 mph6.4 kmh 29.89 in1012.2 mb 0.00 in0.0 mm 0.00 in0.0 mm 0.00 in0.0 mm
07:35 PM 83.8°F28.8°C 69.4°F20.8°C 62% 0.9 mph N1.4 kmh N 2.9 mph4.7 kmh 29.89 in1012.2 mb 0.00 in0.0 mm 0.00 in0.0 mm 0.00 in0.0 mm
07:40 PM 83.8°F28.8°C 68.9°F20.5°C 61% Calm Calm 0.9 mph1.4 kmh 29.89 in1012.2 mb 0.00 in0.0 mm 0.00 in0.0 mm 0.00 in0.0 mm
07:45 PM 83.8°F28.8°C 68.0°F20.0°C 59% 0.9 mph N1.4 kmh N 3.0 mph4.8 kmh 29.89 in1012.2 mb 0.00 in0.0 mm 0.00 in0.0 mm 0.00 in0.0 mm
07:50 PM 83.8°F28.8°C 67.5°F19.7°C 58% 0.9 mph N1.4 kmh N 2.0 mph3.2 kmh 29.89 in1012.2 mb 0.00 in0.0 mm 0.00 in0.0 mm 0.00 in0.0 mm
07:55 PM 83.8°F28.8°C 66.9°F19.4°C 57% 0.9 mph N1.4 kmh N -- 29.89 in1012.2 mb 0.00 in0.0 mm 0.00 in0.0 mm 0.00 in0.0 mm
08:00 PM 83.8°F28.8°C 66.4°F19.1°C 56% Calm Calm -- 29.89 in1012.2 mb 0.00 in0.0 mm 0.00 in0.0 mm 0.00 in0.0 mm
08:05 PM 83.8°F28.8°C 66.0°F18.9°C 55% Calm Calm 2.0 mph3.2 kmh 29.89 in1012.2 mb 0.00 in0.0 mm 0.00 in0.0 mm 0.00 in0.0 mm
08:10 PM 84.0°F28.9°C 65.7°F18.7°C 54% Calm Calm 2.0 mph3.2 kmh 29.89 in1012.2 mb 0.00 in0.0 mm 0.00 in0.0 mm 0.00 in0.0 mm
08:15 PM 84.2°F29.0°C 65.3°F18.5°C 53% 0.9 mph N1.4 kmh N 2.0 mph3.2 kmh 29.89 in1012.2 mb 0.00 in0.0 mm 0.00 in0.0 mm 0.00 in0.0 mm
08:20 PM 84.4°F29.1°C 65.3°F18.5°C 53% Calm Calm 0.9 mph1.4 kmh 29.89 in1012.2 mb 0.00 in0.0 mm 0.00 in0.0 mm 0.00 in0.0 mm
08:25 PM 84.4°F29.1°C 64.8°F18.2°C 52% Calm Calm 3.0 mph4.8 kmh 29.90 in1012.5 mb 0.00 in0.0 mm 0.00 in0.0 mm 0.00 in0.0 mm
08:30 PM 84.2°F29.0°C 64.6°F18.1°C 52% 0.9 mph NW1.4 kmh NW 4.0 mph6.4 kmh 29.90 in1012.5 mb 0.00 in0.0 mm 0.00 in0.0 mm 0.00 in0.0 mm
08:35 PM 83.8°F28.8°C 63.9°F17.7°C 51% 2.0 mph NW3.2 kmh NW 4.0 mph6.4 kmh 29.90 in1012.5 mb 0.00 in0.0 mm 0.00 in0.0 mm 0.00 in0.0 mm
08:40 PM 83.8°F28.8°C 63.9°F17.7°C 51% 0.9 mph NW1.4 kmh NW 2.9 mph4.7 kmh 29.90 in1012.5 mb 0.00 in0.0 mm 0.00 in0.0 mm 0.00 in0.0 mm
08:45 PM 83.7°F28.7°C 63.7°F17.6°C 51% 0.9 mph NW1.4 kmh NW 2.9 mph4.7 kmh 29.90 in1012.5 mb 0.00 in0.0 mm 0.00 in0.0 mm 0.00 in0.0 mm
08:50 PM 83.5°F28.6°C 64.0°F17.8°C 52% 0.9 mph NW1.4 kmh NW 2.9 mph4.7 kmh 29.90 in1012.5 mb 0.00 in0.0 mm 0.00 in0.0 mm 0.00 in0.0 mm
08:55 PM 83.3°F28.5°C 63.9°F17.7°C 52% 0.9 mph NW1.4 kmh NW 2.9 mph4.7 kmh 29.90 in1012.5 mb 0.00 in0.0 mm 0.00 in0.0 mm 0.00 in0.0 mm
09:00 PM 83.1°F28.4°C 63.7°F17.6°C 52% 0.9 mph NW1.4 kmh NW 2.0 mph3.2 kmh 29.90 in1012.5 mb 0.00 in0.0 mm 0.00 in0.0 mm 0.00 in0.0 mm
09:05 PM 83.1°F28.4°C 64.2°F17.9°C 53% Calm Calm -- 29.90 in1012.5 mb 0.00 in0.0 mm 0.00 in0.0 mm 0.00 in0.0 mm
09:10 PM 82.9°F28.3°C 64.0°F17.8°C 53% Calm Calm -- 29.90 in1012.5 mb 0.00 in0.0 mm 0.00 in0.0 mm 0.00 in0.0 mm
09:15 PM 82.6°F28.1°C 63.1°F17.3°C 52% Calm Calm -- 29.90 in1012.5 mb 0.00 in0.0 mm 0.00 in0.0 mm 0.00 in0.0 mm
09:20 PM 82.4°F28.0°C 63.0°F17.2°C 52% Calm Calm 0.9 mph1.4 kmh 29.90 in1012.5 mb 0.00 in0.0 mm 0.00 in0.0 mm 0.00 in0.0 mm
09:25 PM 82.2°F27.9°C 63.3°F17.4°C 53% Calm Calm -- 29.90 in1012.5 mb 0.00 in0.0 mm 0.00 in0.0 mm 0.00 in0.0 mm
09:30 PM 82.0°F27.8°C 63.1°F17.3°C 53% Calm Calm -- 29.90 in1012.5 mb 0.00 in0.0 mm 0.00 in0.0 mm 0.00 in0.0 mm
09:35 PM 81.9°F27.7°C 63.0°F17.2°C 53% Calm Calm 3.0 mph4.8 kmh 29.90 in1012.5 mb 0.00 in0.0 mm 0.00 in0.0 mm 0.00 in0.0 mm
09:40 PM 81.9°F27.7°C 62.4°F16.9°C 52% 0.9 mph NW1.4 kmh NW 2.9 mph4.7 kmh 29.90 in1012.5 mb 0.00 in0.0 mm 0.00 in0.0 mm 0.00 in0.0 mm
09:45 PM 82.0°F27.8°C 63.1°F17.3°C 53% Calm Calm 2.0 mph3.2 kmh 29.90 in1012.5 mb 0.00 in0.0 mm 0.00 in0.0 mm 0.00 in0.0 mm
09:50 PM 82.0°F27.8°C 63.1°F17.3°C 53% 0.9 mph NW1.4 kmh NW 2.9 mph4.7 kmh 29.90 in1012.5 mb 0.00 in0.0 mm 0.00 in0.0 mm 0.00 in0.0 mm
09:55 PM 81.9°F27.7°C 64.6°F18.1°C 56% 0.9 mph NW1.4 kmh NW 4.0 mph6.4 kmh 29.90 in1012.5 mb 0.00 in0.0 mm 0.00 in0.0 mm 0.00 in0.0 mm
10:00 PM 81.7°F27.6°C 64.9°F18.3°C 57% 2.0 mph W3.2 kmh W 4.0 mph6.4 kmh 29.90 in1012.5 mb 0.00 in0.0 mm 0.00 in0.0 mm 0.00 in0.0 mm
10:05 PM 81.7°F27.6°C 65.5°F18.6°C 58% 2.0 mph W3.2 kmh W 6.0 mph9.7 kmh 29.90 in1012.5 mb 0.00 in0.0 mm 0.00 in0.0 mm 0.00 in0.0 mm
10:10 PM 81.9°F27.7°C 65.7°F18.7°C 58% 2.9 mph NW4.7 kmh NW 4.9 mph7.9 kmh 29.90 in1012.5 mb 0.00 in0.0 mm 0.00 in0.0 mm 0.00 in0.0 mm
10:15 PM 81.7°F27.6°C 66.0°F18.9°C 59% 2.9 mph W4.7 kmh W 4.9 mph7.9 kmh 29.90 in1012.5 mb 0.00 in0.0 mm 0.00 in0.0 mm 0.00 in0.0 mm
10:20 PM 81.9°F27.7°C 65.7°F18.7°C 58% 2.9 mph W4.7 kmh W 7.0 mph11.3 kmh 29.90 in1012.5 mb 0.00 in0.0 mm 0.00 in0.0 mm 0.00 in0.0 mm
10:25 PM 81.5°F27.5°C 65.8°F18.8°C 59% 2.9 mph NW4.7 kmh NW 6.0 mph9.7 kmh 29.90 in1012.5 mb 0.00 in0.0 mm 0.00 in0.0 mm 0.00 in0.0 mm
10:30 PM 81.3°F27.4°C 66.0°F18.9°C 60% 2.9 mph WNW4.7 kmh WNW 6.0 mph9.7 kmh 29.90 in1012.5 mb 0.00 in0.0 mm 0.00 in0.0 mm 0.00 in0.0 mm
10:35 PM 81.3°F27.4°C 65.7°F18.7°C 59% 2.0 mph WNW3.2 kmh WNW 4.0 mph6.4 kmh 29.90 in1012.5 mb 0.00 in0.0 mm 0.00 in0.0 mm 0.00 in0.0 mm
10:40 PM 81.3°F27.4°C 65.7°F18.7°C 59% 2.0 mph NW3.2 kmh NW 4.0 mph6.4 kmh 29.91 in1012.9 mb 0.00 in0.0 mm 0.00 in0.0 mm 0.00 in0.0 mm
10:45 PM 81.1°F27.3°C 65.5°F18.6°C 59% 2.0 mph NW3.2 kmh NW 6.9 mph11.1 kmh 29.90 in1012.5 mb 0.00 in0.0 mm 0.00 in0.0 mm 0.00 in0.0 mm
10:50 PM 81.3°F27.4°C 65.7°F18.7°C 59% 2.9 mph NW4.7 kmh NW 6.9 mph11.1 kmh 29.90 in1012.5 mb 0.00 in0.0 mm 0.00 in0.0 mm 0.00 in0.0 mm
10:55 PM 81.3°F27.4°C 65.1°F18.4°C 58% 2.0 mph W3.2 kmh W 4.0 mph6.4 kmh 29.91 in1012.9 mb 0.00 in0.0 mm 0.00 in0.0 mm 0.00 in0.0 mm
11:00 PM 81.3°F27.4°C 64.6°F18.1°C 57% 2.9 mph NW4.7 kmh NW 8.1 mph13.0 kmh 29.91 in1012.9 mb 0.00 in0.0 mm 0.00 in0.0 mm 0.00 in0.0 mm
11:05 PM 81.7°F27.6°C 64.9°F18.3°C 57% 2.9 mph NW4.7 kmh NW 6.9 mph11.1 kmh 29.91 in1012.9 mb 0.00 in0.0 mm 0.00 in0.0 mm 0.00 in0.0 mm
11:10 PM 81.3°F27.4°C 64.6°F18.1°C 57% 2.0 mph NW3.2 kmh NW 2.9 mph4.7 kmh 29.90 in1012.5 mb 0.00 in0.0 mm 0.00 in0.0 mm 0.00 in0.0 mm
11:15 PM 81.0°F27.2°C 64.8°F18.2°C 58% 2.0 mph NW3.2 kmh NW 4.9 mph7.9 kmh 29.90 in1012.5 mb 0.00 in0.0 mm 0.00 in0.0 mm 0.00 in0.0 mm
11:20 PM 80.4°F26.9°C 64.8°F18.2°C 59% 2.9 mph WNW4.7 kmh WNW 7.0 mph11.3 kmh 29.91 in1012.9 mb 0.00 in0.0 mm 0.00 in0.0 mm 0.00 in0.0 mm
11:25 PM 80.1°F26.7°C 64.4°F18.0°C 59% 2.9 mph NW4.7 kmh NW 8.1 mph13.0 kmh 29.90 in1012.5 mb 0.00 in0.0 mm 0.00 in0.0 mm 0.00 in0.0 mm
11:30 PM 80.1°F26.7°C 64.4°F18.0°C 59% 4.0 mph NW6.4 kmh NW 6.9 mph11.1 kmh 29.91 in1012.9 mb 0.00 in0.0 mm 0.00 in0.0 mm 0.00 in0.0 mm
11:35 PM 79.9°F26.6°C 64.8°F18.2°C 60% 2.9 mph WNW4.7 kmh WNW 6.9 mph11.1 kmh 29.91 in1012.9 mb 0.00 in0.0 mm 0.00 in0.0 mm 0.00 in0.0 mm
11:40 PM 80.1°F26.7°C 64.4°F18.0°C 59% 2.9 mph WNW4.7 kmh WNW 6.9 mph11.1 kmh 29.90 in1012.5 mb 0.00 in0.0 mm 0.00 in0.0 mm 0.00 in0.0 mm
11:45 PM 80.2°F26.8°C 64.0°F17.8°C 58% 2.9 mph NW4.7 kmh NW 6.0 mph9.7 kmh 29.90 in1012.5 mb 0.00 in0.0 mm 0.00 in0.0 mm 0.00 in0.0 mm
11:50 PM 80.2°F26.8°C 64.0°F17.8°C 58% 2.9 mph WNW4.7 kmh WNW 8.1 mph13.0 kmh 29.90 in1012.5 mb 0.00 in0.0 mm 0.00 in0.0 mm 0.00 in0.0 mm
11:55 PM 80.4°F26.9°C 63.9°F17.7°C 57% 2.9 mph NW4.7 kmh NW 8.1 mph13.0 kmh 29.90 in1012.5 mb 0.00 in0.0 mm 0.00 in0.0 mm 0.00 in0.0 mm